logo
Rechercher aéroport 
image banner adimage banner adimage banner ad
image banner ad

YWSG - Watts Bridge

Situé à Toogoolawah, Australia

ICAO - YWSG, IATA -

Données fournies par Airmate  

Information générale

Coordonnées: S27°5'40" E152°27'35"
Élévation : 300 feet MSL.
Variation magnétique : 11° East
Voir autres Aéroports à Queensland

Données opérationnelles

Special qualification required
Heure actuelle UTC:
Heure actuelle locale:
Météo à : YAMB - Amberley ( 66 km )
METAR: YAMB 251507Z AUTO 07004KT 9999 // NCD 09/09 Q1022 RF00.0/000.0
TAF: TAF YAMB 251108Z 2512/2612 VRB03KT 9999 SCT035 FM252300 30007KT 9999 SCT035 BKN045 FM260500 06008KT 9999 FEW050 FM261000 25004KT CAVOK PROB40 2514/2522 0800 FG SCT002
Voir NOTAMs / SUP AIP / TFR affectant cet aéroport [VIEW]
Fréquences de communication: [VIEW]

Pistes:

Identifiant RWYQFULongueur (ft)Largeur (ft)SurfaceLDA (ft)
03265782G
21265782G
12L275698UNK
30R275698UNK
12R288798UNK
30L288798UNK
30309°296994GRAS
12129°296994GRAS
18192°385GRAS
0012°385GRAS

Coordonnées de l'aéroport

Adresse: Toogoolawah Australia

Autres services d'aviation

Associations aviation sans but lucratif

Australian Sport Rotorcraft Association

Australian Sport Rotorcraft Association

Autres services

Associations aviation sans but lucratif

Australian Sport Rotorcraft Association

Australian Sport Rotorcraft Association

Vue satellite de YWSG